Sun Village, California
Current Conditions -  °F | °C
As of 2:55 AM on Wednesday 26 Nov 2014 (Local Time) from KGXA Reporting Station
Clear Clear  
Wind Chill: 37°   Ceiling: Unl
Heat Index: 37°   Visibility: 10mi
Dew Point:   Wind: 3mph
Humidity: 24%   Direction: 170°S
Pressure: 30.37"   Gusts: NA
Location:  34.4078°N, 117.88°W
Report Text: KGXA 261055Z AUTO 17003KT 10SM CLR 03/M16 A3037 RMK AO2 SLP293 T00301162 PWINO TSNO $
Loading
Personal Weather Stations






























Interactive Weather Map New forecast layout! Learn more

10-Day Weather Forecast

Advertisements
Track Severe Weather on mobile